Time;durP1;ratioP1;P1;durP2;ratioP2;P2;SDS_P1;SDS_P2;PMS_P1;PMS_P2;Temp;Humidity;BMP_temperature;BMP_pressure;BME280_temperature;BME280_humidity;BME280_pressure;Samples;Min_cycle;Max_cycle;Signal;HPM_P1;HPM_P2
2023/05/19 00:00:15;;;;;;;5.45;1.60;;;;;;;;;;5045973;28;20044;-67
2023/05/19 00:02:42;;;;;;;7.65;1.92;;;;;;;;;;5050828;28;20135;-69
2023/05/19 00:05:10;;;;;;;4.93;1.70;;;;;;;;;;5047319;28;20053;-70
2023/05/19 00:07:38;;;;;;;5.70;1.90;;;;;;;;;;5046201;28;20057;-69
2023/05/19 00:10:05;;;;;;;6.13;1.70;;;;;;;;;;5039492;28;20058;-70
2023/05/19 00:12:33;;;;;;;7.20;1.80;;;;;;;;;;5048325;28;20315;-67
2023/05/19 00:15:00;;;;;;;5.18;1.95;;;;;;;;;;5037049;28;20084;-68
2023/05/19 00:17:26;;;;;;;4.82;1.58;;;;;;;;;;5028806;28;20056;-69
2023/05/19 00:19:53;;;;;;;4.28;1.55;;;;;;;;;;5035406;28;20152;-68
2023/05/19 00:22:20;;;;;;;4.20;1.55;;;;;;;;;;5034468;28;20052;-68
2023/05/19 00:24:46;;;;;;;5.30;1.67;;;;;;;;;;5037146;28;20087;-68
2023/05/19 00:27:13;;;;;;;6.35;1.60;;;;;;;;;;5027205;28;20080;-69
2023/05/19 00:29:41;;;;;;;4.50;1.73;;;;;;;;;;5038333;28;20075;-68
2023/05/19 00:32:07;;;;;;;5.80;2.25;;;;;;;;;;5037358;28;20041;-69
2023/05/19 00:34:34;;;;;;;4.03;1.75;;;;;;;;;;5040123;28;20052;-67
2023/05/19 00:37:01;;;;;;;5.82;2.20;;;;;;;;;;5034156;28;20048;-68
2023/05/19 00:39:27;;;;;;;4.40;1.60;;;;;;;;;;5036340;28;20065;-69
2023/05/19 00:41:54;;;;;;;4.25;1.77;;;;;;;;;;5035492;28;20053;-69
2023/05/19 00:44:20;;;;;;;4.80;1.98;;;;;;;;;;5038110;28;20057;-68
2023/05/19 00:46:48;;;;;;;5.85;1.83;;;;;;;;;;5037229;28;20052;-70
2023/05/19 00:49:15;;;;;;;4.00;1.63;;;;;;;;;;5028656;28;20056;-68
2023/05/19 00:51:41;;;;;;;8.23;2.50;;;;;;;;;;5040646;28;20335;-67
2023/05/19 00:54:08;;;;;;;6.38;2.10;;;;;;;;;;5036616;28;20068;-67
2023/05/19 00:56:35;;;;;;;4.40;1.73;;;;;;;;;;5038148;28;20112;-69
2023/05/19 00:59:02;;;;;;;4.97;1.90;;;;;;;;;;5032167;28;20060;-70
2023/05/19 01:01:31;;;;;;;4.95;2.10;;;;;;;;;;5045596;28;20060;-69
2023/05/19 01:03:57;;;;;;;;;;;;;;;;;;5037572;28;20052;-68
2023/05/19 01:06:26;;;;;;;5.32;1.85;;;;;;;;;;5058231;28;19928;-69
2023/05/19 01:08:53;;;;;;;6.05;1.75;;;;;;;;;;5053669;28;20063;-69
2023/05/19 01:11:20;;;;;;;4.60;1.85;;;;;;;;;;5035180;28;20109;-69
2023/05/19 01:13:47;;;;;;;6.55;1.83;;;;;;;;;;5036847;28;20113;-68
2023/05/19 01:16:18;;;;;;;8.68;2.00;;;;;;;;;;5041417;28;20163;-69
2023/05/19 01:18:50;;;;;;;8.00;2.17;;;;;;;;;;5033993;28;20056;-67
2023/05/19 01:21:24;;;;;;;6.55;2.05;;;;;;;;;;5032569;28;20066;-69
2023/05/19 01:24:01;;;;;;;3.28;1.88;;;;;;;;;;5056039;28;20067;-68
2023/05/19 01:26:45;;;;;;;3.83;1.60;;;;;;;;;;5040872;28;20056;-69
2023/05/19 01:29:40;;;;;;;4.78;1.80;;;;;;;;;;5003165;28;20087;-68
2023/05/19 01:32:09;;;;;;;5.63;2.22;;;;;;;;;;5022084;28;20061;-68
2023/05/19 01:34:38;;;;;;;4.95;1.90;;;;;;;;;;5017447;28;20053;-66
2023/05/19 01:37:05;;;;;;;3.45;1.85;;;;;;;;;;5017281;28;20080;-69
2023/05/19 01:39:32;;;;;;;4.35;2.00;;;;;;;;;;5016446;28;20064;-68
2023/05/19 01:41:59;;;;;;;5.55;1.98;;;;;;;;;;5020978;28;20061;-68
2023/05/19 01:44:26;;;;;;;5.22;2.08;;;;;;;;;;5023583;28;20085;-67
2023/05/19 01:46:52;;;;;;;3.67;1.85;;;;;;;;;;5019847;28;20143;-68
2023/05/19 01:49:20;;;;;;;5.75;1.67;;;;;;;;;;5034214;28;20083;-70
2023/05/19 01:51:48;;;;;;;4.50;1.70;;;;;;;;;;5040292;28;20057;-67
2023/05/19 01:54:15;;;;;;;5.65;1.80;;;;;;;;;;5029703;28;20078;-68
2023/05/19 01:56:52;;;;;;;3.72;1.67;;;;;;;;;;5018148;28;20115;-68
2023/05/19 01:59:24;;;;;;;6.85;1.90;;;;;;;;;;5023224;28;20140;-66
2023/05/19 02:01:52;;;;;;;6.78;1.70;;;;;;;;;;5014516;28;20053;-67
2023/05/19 02:04:25;;;;;;;5.10;1.73;;;;;;;;;;4985778;28;20140;-67
2023/05/19 02:06:55;;;;;;;4.63;1.85;;;;;;;;;;5033410;28;20060;-67
2023/05/19 02:09:23;;;;;;;3.45;1.55;;;;;;;;;;5046397;28;20071;-69
2023/05/19 02:11:52;;;;;;;6.22;1.70;;;;;;;;;;5035493;28;20053;-68
2023/05/19 02:14:21;;;;;;;9.43;2.10;;;;;;;;;;5016985;28;20133;-71
2023/05/19 02:16:48;;;;;;;3.92;1.70;;;;;;;;;;5033577;28;20053;-70
2023/05/19 02:19:23;;;;;;;4.88;1.80;;;;;;;;;;5036138;28;20059;-70
2023/05/19 02:21:50;;;;;;;3.55;1.70;;;;;;;;;;5031481;28;20053;-70
2023/05/19 02:24:16;;;;;;;5.15;2.20;;;;;;;;;;5027795;28;20064;-71
2023/05/19 02:26:43;;;;;;;6.75;1.75;;;;;;;;;;5033310;28;20056;-70
2023/05/19 02:29:09;;;;;;;5.30;1.85;;;;;;;;;;5035696;28;20068;-70
2023/05/19 02:31:36;;;;;;;5.70;1.88;;;;;;;;;;5034729;28;20065;-70
2023/05/19 02:34:03;;;;;;;7.05;2.10;;;;;;;;;;5031806;28;20061;-69
2023/05/19 02:36:35;;;;;;;5.15;1.70;;;;;;;;;;5038306;28;20051;-67
2023/05/19 02:39:02;;;;;;;4.00;1.75;;;;;;;;;;5037225;28;20076;-67
2023/05/19 02:41:28;;;;;;;5.07;1.80;;;;;;;;;;5033865;28;20088;-67
2023/05/19 02:43:54;;;;;;;5.03;1.98;;;;;;;;;;5033736;28;20086;-68
2023/05/19 02:46:21;;;;;;;5.18;2.08;;;;;;;;;;5029063;28;20066;-68
2023/05/19 02:48:47;;;;;;;5.35;2.22;;;;;;;;;;5034717;28;20092;-68
2023/05/19 02:51:16;;;;;;;7.22;2.13;;;;;;;;;;5036411;28;20061;-68
2023/05/19 02:53:44;;;;;;;3.65;1.77;;;;;;;;;;5029864;28;20080;-68
2023/05/19 02:56:11;;;;;;;4.68;1.70;;;;;;;;;;5031620;28;20065;-69
2023/05/19 02:58:38;;;;;;;5.88;2.50;;;;;;;;;;5042320;28;20138;-70
2023/05/19 03:01:04;;;;;;;5.90;1.88;;;;;;;;;;5036480;28;20118;-68
2023/05/19 03:03:31;;;;;;;4.10;1.70;;;;;;;;;;5031115;28;20041;-69
2023/05/19 03:05:59;;;;;;;4.50;1.85;;;;;;;;;;5026632;28;20090;-67
2023/05/19 03:08:25;;;;;;;3.55;1.58;;;;;;;;;;5028922;28;20125;-67
2023/05/19 03:10:53;;;;;;;6.88;2.10;;;;;;;;;;5062561;28;20129;-68
2023/05/19 03:13:20;;;;;;;7.20;2.00;;;;;;;;;;5042918;28;20056;-68
2023/05/19 03:15:47;;;;;;;5.78;1.75;;;;;;;;;;5032254;28;20049;-69
2023/05/19 03:18:15;;;;;;;5.00;1.85;;;;;;;;;;5026567;28;20044;-69
2023/05/19 03:20:43;;;;;;;6.03;2.13;;;;;;;;;;5037339;28;20061;-67
2023/05/19 03:23:10;;;;;;;5.40;1.80;;;;;;;;;;5033809;28;20116;-68
2023/05/19 03:25:36;;;;;;;7.85;2.13;;;;;;;;;;5024437;28;20056;-67
2023/05/19 03:28:05;;;;;;;5.05;2.08;;;;;;;;;;5035470;28;20148;-69
2023/05/19 03:30:31;;;;;;;5.22;1.80;;;;;;;;;;5035115;28;20134;-67
2023/05/19 03:33:00;;;;;;;5.85;1.92;;;;;;;;;;5035697;28;20095;-68
2023/05/19 03:35:27;;;;;;;6.10;1.90;;;;;;;;;;5028969;28;20048;-68
2023/05/19 03:37:53;;;;;;;6.00;2.05;;;;;;;;;;5035387;28;20057;-69
2023/05/19 03:40:20;;;;;;;5.22;2.20;;;;;;;;;;5029222;28;20141;-68
2023/05/19 03:42:46;;;;;;;7.22;2.22;;;;;;;;;;5035138;28;20065;-68
2023/05/19 03:45:14;;;;;;;7.05;2.13;;;;;;;;;;5023958;28;20087;-68
2023/05/19 03:47:41;;;;;;;6.47;1.95;;;;;;;;;;5019191;28;20136;-66
2023/05/19 03:50:08;;;;;;;8.00;2.08;;;;;;;;;;5026456;28;20068;-70
2023/05/19 03:52:39;;;;;;;5.40;2.08;;;;;;;;;;5039079;28;20081;-71
2023/05/19 03:55:06;;;;;;;8.27;1.98;;;;;;;;;;5012975;28;20069;-70
2023/05/19 03:57:38;;;;;;;4.57;1.90;;;;;;;;;;5040334;28;20052;-71
2023/05/19 04:00:05;;;;;;;4.03;1.77;;;;;;;;;;5034673;28;20052;-69
2023/05/19 04:02:34;;;;;;;7.97;2.38;;;;;;;;;;5037347;28;20049;-69
2023/05/19 04:05:03;;;;;;;5.47;2.28;;;;;;;;;;5025521;28;20185;-70
2023/05/19 04:07:30;;;;;;;5.80;1.80;;;;;;;;;;5030471;28;20255;-71
2023/05/19 04:09:58;;;;;;;3.70;1.70;;;;;;;;;;5046066;28;20084;-72
2023/05/19 04:12:24;;;;;;;5.90;2.00;;;;;;;;;;5032522;28;20354;-70
2023/05/19 04:14:51;;;;;;;3.67;1.80;;;;;;;;;;4996348;28;20057;-71
2023/05/19 04:17:18;;;;;;;5.30;1.95;;;;;;;;;;5029756;28;20055;-72
2023/05/19 04:19:46;;;;;;;5.25;1.90;;;;;;;;;;5039265;28;20057;-71
2023/05/19 04:22:12;;;;;;;6.00;2.20;;;;;;;;;;5028078;28;20059;-71
2023/05/19 04:24:39;;;;;;;8.20;2.05;;;;;;;;;;5018118;28;20052;-69
2023/05/19 04:27:10;;;;;;;5.57;1.92;;;;;;;;;;5034175;28;20048;-70
2023/05/19 04:29:37;;;;;;;5.35;1.98;;;;;;;;;;5038858;28;20080;-71
2023/05/19 04:32:06;;;;;;;4.70;2.00;;;;;;;;;;5033842;28;20144;-70
2023/05/19 04:34:34;;;;;;;6.72;2.22;;;;;;;;;;5031964;28;20044;-71
2023/05/19 04:37:03;;;;;;;5.30;1.90;;;;;;;;;;5035941;28;20080;-69
2023/05/19 04:39:30;;;;;;;5.43;2.10;;;;;;;;;;5040519;28;20091;-71
2023/05/19 04:42:01;;;;;;;4.90;2.05;;;;;;;;;;5034945;28;20056;-69
2023/05/19 04:44:33;;;;;;;5.30;2.40;;;;;;;;;;5021739;28;20057;-70
2023/05/19 04:47:02;;;;;;;4.00;1.90;;;;;;;;;;5049902;28;20049;-67
2023/05/19 04:49:28;;;;;;;5.20;1.90;;;;;;;;;;5043107;28;20088;-69
2023/05/19 04:51:58;;;;;;;6.72;2.30;;;;;;;;;;5036434;28;20059;-68
2023/05/19 04:54:26;;;;;;;5.13;2.15;;;;;;;;;;5019068;28;20289;-67
2023/05/19 04:56:55;;;;;;;4.75;2.08;;;;;;;;;;5039169;28;20075;-67
2023/05/19 04:59:21;;;;;;;;;;;;;;;;;;5038166;28;20060;-67
2023/05/19 05:01:48;;;;;;;5.10;2.40;;;;;;;;;;5022513;28;19924;-68
2023/05/19 05:04:15;;;;;;;7.35;2.78;;;;;;;;;;5020421;28;20060;-68
2023/05/19 05:06:46;;;;;;;5.60;2.13;;;;;;;;;;5077162;28;20063;-67
2023/05/19 05:09:13;;;;;;;8.13;2.45;;;;;;;;;;5067739;28;20051;-68
2023/05/19 05:11:41;;;;;;;7.68;2.47;;;;;;;;;;5077793;28;20083;-69
2023/05/19 05:14:08;;;;;;;7.35;2.10;;;;;;;;;;5050011;28;20059;-67
2023/05/19 05:16:35;;;;;;;4.80;2.13;;;;;;;;;;5074198;28;20056;-68
2023/05/19 05:19:02;;;;;;;5.63;2.35;;;;;;;;;;5075374;28;20121;-69
2023/05/19 05:21:28;;;;;;;6.75;2.30;;;;;;;;;;5061668;28;20048;-67
2023/05/19 05:23:55;;;;;;;6.68;2.70;;;;;;;;;;5063628;28;20079;-69
2023/05/19 05:26:23;;;;;;;5.95;2.35;;;;;;;;;;5052830;28;20052;-68
2023/05/19 05:28:51;;;;;;;5.43;2.42;;;;;;;;;;5058473;28;20127;-67
2023/05/19 05:31:17;;;;;;;4.70;2.08;;;;;;;;;;5060709;28;20087;-69
2023/05/19 05:33:47;;;;;;;5.97;2.28;;;;;;;;;;5059591;28;20118;-67
2023/05/19 05:36:13;;;;;;;4.20;2.17;;;;;;;;;;5049044;28;20141;-69
2023/05/19 05:38:40;;;;;;;6.95;2.25;;;;;;;;;;5056846;28;20047;-68
2023/05/19 05:41:07;;;;;;;8.98;2.92;;;;;;;;;;5061417;28;20071;-68
2023/05/19 05:43:34;;;;;;;7.18;2.42;;;;;;;;;;5075093;28;20155;-70
2023/05/19 05:46:03;;;;;;;6.60;2.00;;;;;;;;;;5046603;28;20079;-70
2023/05/19 05:48:30;;;;;;;7.10;2.33;;;;;;;;;;5075764;28;20353;-68
2023/05/19 05:50:59;;;;;;;6.22;2.40;;;;;;;;;;5058776;28;20064;-68
2023/05/19 05:53:26;;;;;;;5.07;2.30;;;;;;;;;;5060197;28;20138;-68
2023/05/19 05:55:56;;;;;;;7.60;2.15;;;;;;;;;;5035830;28;20060;-69
2023/05/19 05:58:25;;;;;;;5.10;2.40;;;;;;;;;;5055664;28;20113;-68
2023/05/19 06:00:56;;;;;;;;;;;;;;;;;;5060657;28;20051;-69
2023/05/19 06:03:25;;;;;;;3.72;1.80;;;;;;;;;;5039379;28;19935;-70
2023/05/19 06:05:58;;;;;;;4.72;2.40;;;;;;;;;;5009793;28;20044;-69
2023/05/19 06:08:24;;;;;;;5.55;2.40;;;;;;;;;;5035824;28;20045;-70
2023/05/19 06:10:54;;;;;;;6.97;2.47;;;;;;;;;;5035860;28;20067;-72
2023/05/19 06:13:24;;;;;;;6.20;2.05;;;;;;;;;;5037034;28;20060;-69
2023/05/19 06:15:51;;;;;;;5.25;2.35;;;;;;;;;;5019676;28;20148;-68
2023/05/19 06:18:20;;;;;;;5.40;2.33;;;;;;;;;;5031219;28;20122;-69
2023/05/19 06:20:48;;;;;;;6.55;2.08;;;;;;;;;;5040198;28;20057;-68
2023/05/19 06:23:17;;;;;;;5.57;2.10;;;;;;;;;;5036047;28;20060;-68
2023/05/19 06:25:47;;;;;;;5.18;2.50;;;;;;;;;;5030565;28;20135;-67
2023/05/19 06:28:16;;;;;;;6.72;2.35;;;;;;;;;;5032929;28;20248;-69
2023/05/19 06:30:45;;;;;;;6.80;2.40;;;;;;;;;;5032419;28;20083;-69
2023/05/19 06:33:11;;;;;;;;;;;;;;;;;;5037274;28;20135;-69
2023/05/19 06:35:40;;;;;;;8.73;2.55;;;;;;;;;;5014697;28;19951;-71
2023/05/19 06:38:10;;;;;;;6.10;2.60;;;;;;;;;;5035120;28;20061;-71
2023/05/19 06:40:37;;;;;;;6.80;2.13;;;;;;;;;;5036792;28;20052;-71
2023/05/19 06:43:03;;;;;;;9.75;2.20;;;;;;;;;;5035673;28;20107;-72
2023/05/19 06:45:30;;;;;;;5.82;2.10;;;;;;;;;;5026098;28;20166;-69
2023/05/19 06:48:06;;;;;;;5.55;2.05;;;;;;;;;;5034682;28;20164;-69
2023/05/19 06:50:34;;;;;;;11.73;2.65;;;;;;;;;;5033709;28;20041;-69
2023/05/19 06:53:01;;;;;;;6.82;2.20;;;;;;;;;;5034977;28;20064;-69
2023/05/19 06:55:32;;;;;;;3.15;1.60;;;;;;;;;;5024756;28;20063;-67
2023/05/19 06:57:59;;;;;;;7.05;2.10;;;;;;;;;;5032956;28;20085;-70
2023/05/19 07:00:27;;;;;;;5.57;2.20;;;;;;;;;;5033829;28;20261;-70
2023/05/19 07:02:54;;;;;;;6.80;2.33;;;;;;;;;;5032745;28;20057;-70
2023/05/19 07:05:27;;;;;;;5.90;2.20;;;;;;;;;;5034270;28;20053;-68
2023/05/19 07:07:56;;;;;;;7.90;2.35;;;;;;;;;;5031493;28;20056;-70
2023/05/19 07:10:23;;;;;;;5.22;2.22;;;;;;;;;;5032615;28;20059;-69
2023/05/19 07:12:51;;;;;;;5.90;2.00;;;;;;;;;;5030547;28;20065;-68
2023/05/19 07:15:18;;;;;;;4.57;1.75;;;;;;;;;;5013726;28;20064;-71
2023/05/19 07:17:45;;;;;;;5.53;2.13;;;;;;;;;;5047749;28;20049;-67
2023/05/19 07:20:16;;;;;;;5.32;2.60;;;;;;;;;;5035591;28;20136;-68
2023/05/19 07:22:42;;;;;;;3.08;1.60;;;;;;;;;;5034466;28;20110;-69
2023/05/19 07:25:14;;;;;;;5.45;1.75;;;;;;;;;;5030175;28;20139;-67
2023/05/19 07:27:40;;;;;;;6.22;1.90;;;;;;;;;;5044366;28;20068;-68
2023/05/19 07:30:13;;;;;;;7.97;2.05;;;;;;;;;;5036367;28;20056;-67
2023/05/19 07:32:42;;;;;;;5.32;1.90;;;;;;;;;;5037733;28;20047;-71
2023/05/19 07:35:11;;;;;;;6.75;2.10;;;;;;;;;;5038187;28;20048;-70
2023/05/19 07:37:40;;;;;;;5.45;1.95;;;;;;;;;;5041140;28;20048;-69
2023/05/19 07:40:10;;;;;;;6.07;2.20;;;;;;;;;;5035409;28;20219;-72
2023/05/19 07:42:39;;;;;;;4.38;1.40;;;;;;;;;;5039532;28;20041;-72
2023/05/19 07:45:06;;;;;;;4.63;1.67;;;;;;;;;;5035141;28;20113;-69
2023/05/19 07:47:34;;;;;;;8.70;1.70;;;;;;;;;;5041409;28;20065;-72
2023/05/19 07:50:01;;;;;;;3.03;1.42;;;;;;;;;;5035629;28;20311;-67
2023/05/19 07:52:27;;;;;;;4.90;1.60;;;;;;;;;;5037552;28;20345;-71
2023/05/19 07:54:57;;;;;;;5.00;1.50;;;;;;;;;;5033711;28;20110;-71
2023/05/19 07:57:23;;;;;;;6.68;1.70;;;;;;;;;;5039808;28;20134;-71
2023/05/19 07:59:52;;;;;;;6.22;1.70;;;;;;;;;;5036030;28;20052;-69
2023/05/19 08:02:18;;;;;;;4.10;1.80;;;;;;;;;;5034365;28;20049;-71
2023/05/19 08:04:47;;;;;;;4.43;1.75;;;;;;;;;;5022701;28;20107;-70
2023/05/19 08:07:24;;;;;;;5.85;1.40;;;;;;;;;;5049428;28;20139;-72
2023/05/19 08:09:57;;;;;;;4.78;1.75;;;;;;;;;;5052714;28;20482;-72
2023/05/19 08:12:24;;;;;;;3.70;1.35;;;;;;;;;;5042990;28;20131;-72
2023/05/19 08:14:55;;;;;;;5.15;1.40;;;;;;;;;;5017941;28;20091;-73
2023/05/19 08:17:22;;;;;;;3.78;1.45;;;;;;;;;;5053926;28;20065;-70
2023/05/19 08:19:50;;;;;;;4.88;1.35;;;;;;;;;;5047138;28;20145;-69
2023/05/19 08:22:16;;;;;;;4.45;1.50;;;;;;;;;;5052822;28;20075;-68
2023/05/19 08:24:43;;;;;;;4.45;1.40;;;;;;;;;;5036059;28;20051;-70
2023/05/19 08:27:10;;;;;;;5.15;2.15;;;;;;;;;;5057544;28;20110;-70
2023/05/19 08:29:37;;;;;;;4.72;1.40;;;;;;;;;;5062257;28;20057;-68
2023/05/19 08:32:06;;;;;;;5.05;1.17;;;;;;;;;;5054568;28;20060;-68
2023/05/19 08:34:33;;;;;;;4.95;1.50;;;;;;;;;;5046481;28;20052;-69
2023/05/19 08:37:01;;;;;;;4.28;1.50;;;;;;;;;;5061430;28;20044;-70
2023/05/19 08:39:33;;;;;;;4.35;1.30;;;;;;;;;;5062829;28;20055;-70
2023/05/19 08:42:01;;;;;;;5.82;1.40;;;;;;;;;;5060205;28;20127;-72
2023/05/19 08:44:27;;;;;;;4.95;1.40;;;;;;;;;;5048570;28;20060;-71
2023/05/19 08:46:54;;;;;;;4.50;1.33;;;;;;;;;;5054188;28;20072;-71
2023/05/19 08:49:23;;;;;;;3.75;1.40;;;;;;;;;;5058127;28;20068;-70
2023/05/19 08:51:55;;;;;;;3.95;1.50;;;;;;;;;;5056291;28;20164;-68
2023/05/19 08:54:25;;;;;;;5.15;1.30;;;;;;;;;;5040112;28;20067;-67
2023/05/19 08:56:52;;;;;;;5.43;1.50;;;;;;;;;;5059413;28;20060;-71
2023/05/19 08:59:20;;;;;;;4.20;1.30;;;;;;;;;;5060217;28;20147;-69
2023/05/19 09:01:47;;;;;;;3.47;1.20;;;;;;;;;;5057752;28;20063;-69
2023/05/19 09:04:14;;;;;;;5.55;1.10;;;;;;;;;;5051366;28;20159;-67
2023/05/19 09:06:43;;;;;;;4.50;1.13;;;;;;;;;;5055495;28;20069;-69
2023/05/19 09:09:10;;;;;;;7.20;1.55;;;;;;;;;;5071866;28;20143;-67
2023/05/19 09:11:38;;;;;;;4.60;1.50;;;;;;;;;;5075261;28;20051;-72
2023/05/19 09:14:08;;;;;;;4.10;1.10;;;;;;;;;;5059748;28;20052;-70
2023/05/19 09:16:35;;;;;;;6.68;1.50;;;;;;;;;;4999128;27;20071;-69
2023/05/19 09:19:01;;;;;;;3.03;1.30;;;;;;;;;;5057211;28;20088;-70
2023/05/19 09:21:31;;;;;;;4.90;1.50;;;;;;;;;;5062122;28;20051;-69
2023/05/19 09:23:59;;;;;;;4.53;1.20;;;;;;;;;;5076145;28;20055;-71
2023/05/19 09:26:36;;;;;;;6.90;1.50;;;;;;;;;;5066177;28;20152;-68
2023/05/19 09:29:10;;;;;;;2.93;1.00;;;;;;;;;;5056314;28;20063;-69
2023/05/19 09:31:37;;;;;;;5.57;1.45;;;;;;;;;;5063074;28;20051;-69
2023/05/19 09:34:06;;;;;;;8.50;1.80;;;;;;;;;;5056516;28;20060;-69
2023/05/19 09:36:33;;;;;;;4.15;1.30;;;;;;;;;;5072635;28;20135;-69
2023/05/19 09:38:59;;;;;;;5.35;1.20;;;;;;;;;;5057535;28;20060;-69
2023/05/19 09:41:27;;;;;;;4.45;1.45;;;;;;;;;;5060326;28;20053;-71
2023/05/19 09:43:56;;;;;;;4.90;1.27;;;;;;;;;;5057075;28;20083;-70
2023/05/19 09:46:27;;;;;;;3.67;1.20;;;;;;;;;;5057689;28;20149;-68
2023/05/19 09:48:57;;;;;;;3.97;1.30;;;;;;;;;;5075723;28;20056;-70
2023/05/19 09:51:26;;;;;;;3.63;1.13;;;;;;;;;;5061895;28;20052;-70
2023/05/19 09:53:53;;;;;;;8.20;1.30;;;;;;;;;;5055691;28;20044;-71
2023/05/19 09:56:24;;;;;;;4.45;1.42;;;;;;;;;;5073028;28;20051;-70
2023/05/19 09:58:51;;;;;;;5.90;1.30;;;;;;;;;;5056142;28;20056;-71
2023/05/19 10:01:21;;;;;;;4.85;1.25;;;;;;;;;;5062094;28;20086;-70
2023/05/19 10:03:49;;;;;;;3.13;1.30;;;;;;;;;;5070107;28;20063;-69
2023/05/19 10:06:16;;;;;;;3.55;1.30;;;;;;;;;;5047559;28;20110;-73
2023/05/19 10:08:43;;;;;;;3.88;1.10;;;;;;;;;;5060571;28;20120;-71
2023/05/19 10:11:15;;;;;;;4.37;1.47;;;;;;;;;;5056640;28;20048;-69
2023/05/19 10:13:44;;;;;;;7.03;1.35;;;;;;;;;;5078417;28;20054;-69
2023/05/19 10:16:12;;;;;;;3.50;1.20;;;;;;;;;;5048986;28;20120;-69
2023/05/19 10:18:40;;;;;;;5.00;1.40;;;;;;;;;;5055820;28;20137;-69
2023/05/19 10:21:08;;;;;;;3.50;1.30;;;;;;;;;;5053948;28;20082;-68
2023/05/19 10:23:38;;;;;;;3.90;1.85;;;;;;;;;;5054904;28;20075;-70
2023/05/19 10:26:07;;;;;;;6.75;1.45;;;;;;;;;;5047308;28;20068;-69
2023/05/19 10:28:37;;;;;;;4.82;1.50;;;;;;;;;;5051649;28;20043;-69
2023/05/19 10:31:06;;;;;;;4.07;1.38;;;;;;;;;;5053584;28;20076;-70
2023/05/19 10:33:36;;;;;;;6.35;1.40;;;;;;;;;;5055243;28;20062;-71
2023/05/19 10:36:16;;;;;;;9.38;1.58;;;;;;;;;;5052550;28;20056;-71
2023/05/19 10:38:51;;;;;;;5.88;1.40;;;;;;;;;;5057803;28;20090;-72
2023/05/19 10:41:27;;;;;;;3.75;1.10;;;;;;;;;;5053003;28;20064;-72
2023/05/19 10:43:56;;;;;;;;;;;;;;;;;;5056552;28;20068;-69
2023/05/19 10:46:23;;;;;;;4.75;1.40;;;;;;;;;;5044513;28;19928;-70
2023/05/19 10:48:51;;;;;;;5.60;1.37;;;;;;;;;;5055151;28;20056;-69
2023/05/19 10:51:19;;;;;;;4.68;1.52;;;;;;;;;;5057123;28;20397;-69
2023/05/19 10:53:49;;;;;;;3.80;1.38;;;;;;;;;;5055877;28;20109;-69
2023/05/19 10:56:32;;;;;;;3.92;1.17;;;;;;;;;;5036584;28;20044;-70
2023/05/19 10:58:59;;;;;;;3.83;1.23;;;;;;;;;;5055424;28;20091;-72
2023/05/19 11:04:14;;;;;;;6.20;2.00;;;;;;;;;;5027906;28;20266;-72
2023/05/19 11:06:50;;;;;;;5.22;1.35;;;;;;;;;;5050062;28;20052;-68
2023/05/19 11:09:18;;;;;;;6.25;1.80;;;;;;;;;;5061356;28;20059;-71
2023/05/19 11:11:45;;;;;;;2.75;1.30;;;;;;;;;;5067215;28;20074;-69
2023/05/19 11:14:14;;;;;;;5.38;1.40;;;;;;;;;;5053330;28;20122;-69
2023/05/19 11:16:44;;;;;;;4.47;1.35;;;;;;;;;;5047627;28;20048;-68
2023/05/19 11:19:19;;;;;;;6.22;1.40;;;;;;;;;;5056706;28;20056;-69
2023/05/19 11:21:53;;;;;;;4.65;1.38;;;;;;;;;;5053008;28;20060;-73
2023/05/19 11:24:36;;;;;;;6.50;1.35;;;;;;;;;;5030857;28;20052;-71
2023/05/19 11:27:21;;;;;;;4.00;1.27;;;;;;;;;;5034428;28;20056;-72
2023/05/19 11:29:48;;;;;;;5.72;1.30;;;;;;;;;;5055524;28;20052;-69
2023/05/19 11:32:19;;;;;;;5.03;1.27;;;;;;;;;;5050017;28;20074;-71
2023/05/19 11:34:49;;;;;;;4.75;1.45;;;;;;;;;;5022918;28;20061;-69
2023/05/19 11:37:20;;;;;;;2.95;1.20;;;;;;;;;;5036026;28;20049;-71
2023/05/19 11:39:46;;;;;;;38.60;16.35;;;;;;;;;;5055143;28;20048;-69
2023/05/19 11:42:13;;;;;;;27.95;11.82;;;;;;;;;;5054396;28;20147;-70
2023/05/19 11:44:41;;;;;;;29.40;12.57;;;;;;;;;;5036839;28;20217;-67
2023/05/19 11:47:08;;;;;;;24.00;8.20;;;;;;;;;;5040050;28;20053;-68
2023/05/19 11:49:34;;;;;;;46.30;7.07;;;;;;;;;;5053805;28;20125;-70
2023/05/19 11:52:05;;;;;;;16.65;4.72;;;;;;;;;;5055334;28;20057;-69
2023/05/19 11:54:36;;;;;;;17.88;4.88;;;;;;;;;;5049777;28;21294;-69
2023/05/19 11:57:03;;;;;;;16.73;4.57;;;;;;;;;;5044726;28;20052;-71
2023/05/19 11:59:30;;;;;;;14.02;4.93;;;;;;;;;;5051352;28;20056;-70
2023/05/19 12:01:56;;;;;;;19.02;4.55;;;;;;;;;;5058242;28;20139;-71
2023/05/19 12:04:25;;;;;;;11.82;4.05;;;;;;;;;;5036298;28;20060;-69
2023/05/19 12:06:53;;;;;;;10.80;3.75;;;;;;;;;;5059063;28;20063;-71
2023/05/19 12:09:20;;;;;;;10.40;3.93;;;;;;;;;;5055957;28;20244;-71
2023/05/19 12:11:50;;;;;;;11.60;3.55;;;;;;;;;;5067151;28;20048;-69
2023/05/19 12:14:18;;;;;;;10.77;3.15;;;;;;;;;;5044968;28;20139;-70
2023/05/19 12:16:46;;;;;;;9.45;3.17;;;;;;;;;;5048341;28;20098;-69
2023/05/19 12:19:16;;;;;;;11.63;3.08;;;;;;;;;;5058471;28;20048;-70
2023/05/19 12:21:44;;;;;;;14.60;3.65;;;;;;;;;;5062570;28;20130;-70
2023/05/19 12:24:11;;;;;;;7.13;2.53;;;;;;;;;;5054539;28;20062;-69
2023/05/19 12:26:38;;;;;;;8.03;2.93;;;;;;;;;;5057114;28;20063;-70
2023/05/19 12:29:07;;;;;;;5.60;2.42;;;;;;;;;;5066692;28;20047;-71
2023/05/19 12:31:34;;;;;;;8.65;2.65;;;;;;;;;;5059588;28;20142;-69
2023/05/19 12:34:01;;;;;;;6.13;2.10;;;;;;;;;;5075741;28;20052;-70
2023/05/19 12:36:29;;;;;;;8.68;2.10;;;;;;;;;;5064488;28;20052;-70
2023/05/19 12:38:56;;;;;;;4.03;1.98;;;;;;;;;;5061484;28;20109;-69
2023/05/19 12:41:24;;;;;;;6.82;2.30;;;;;;;;;;5059722;28;20056;-70
2023/05/19 12:43:52;;;;;;;25.15;2.42;;;;;;;;;;5079101;28;20129;-69
2023/05/19 12:46:21;;;;;;;19.50;2.08;;;;;;;;;;5047995;28;20081;-72
2023/05/19 12:48:48;;;;;;;7.30;2.38;;;;;;;;;;5062416;28;20052;-69
2023/05/19 12:51:22;;;;;;;9.23;1.83;;;;;;;;;;5062838;28;20052;-71
2023/05/19 12:53:50;;;;;;;9.23;1.77;;;;;;;;;;5061605;28;20055;-69
2023/05/19 12:56:20;;;;;;;5.63;1.90;;;;;;;;;;5007579;27;20054;-69
2023/05/19 12:58:46;;;;;;;9.10;2.08;;;;;;;;;;5061971;28;20055;-71
2023/05/19 13:01:16;;;;;;;11.13;2.10;;;;;;;;;;5077367;28;20059;-72
2023/05/19 13:03:44;;;;;;;6.63;1.70;;;;;;;;;;5048143;28;20122;-70
2023/05/19 13:06:11;;;;;;;;;;;;;;;;;;5024357;28;20111;-70
2023/05/19 13:08:38;;;;;;;4.07;1.67;;;;;;;;;;5043618;28;19955;-70
2023/05/19 13:11:04;;;;;;;5.00;1.75;;;;;;;;;;5053954;28;20063;-69
2023/05/19 13:13:31;;;;;;;5.97;1.70;;;;;;;;;;5045057;28;20075;-70
2023/05/19 13:15:58;;;;;;;5.47;1.60;;;;;;;;;;5037413;28;20143;-70
2023/05/19 13:18:30;;;;;;;3.70;1.30;;;;;;;;;;5034196;28;20063;-70
2023/05/19 13:21:00;;;;;;;5.28;2.10;;;;;;;;;;5057150;28;20064;-70
2023/05/19 13:23:27;;;;;;;5.00;1.70;;;;;;;;;;5037012;28;20059;-70
2023/05/19 13:25:53;;;;;;;2.88;1.40;;;;;;;;;;5017290;28;20087;-70
2023/05/19 13:28:23;;;;;;;6.35;1.58;;;;;;;;;;5034075;28;20040;-71
2023/05/19 13:30:50;;;;;;;4.90;1.55;;;;;;;;;;5060441;28;20052;-71
2023/05/19 13:33:20;;;;;;;4.78;1.60;;;;;;;;;;5047816;28;20055;-70
2023/05/19 13:35:49;;;;;;;5.47;1.40;;;;;;;;;;5036416;28;20060;-71
2023/05/19 13:38:19;;;;;;;4.25;1.30;;;;;;;;;;5034742;28;20052;-72
2023/05/19 13:40:49;;;;;;;5.13;1.30;;;;;;;;;;5039936;28;20052;-70
2023/05/19 13:43:18;;;;;;;4.53;1.40;;;;;;;;;;5035990;28;20119;-72
2023/05/19 13:45:49;;;;;;;3.78;1.40;;;;;;;;;;5035445;28;20067;-70
2023/05/19 13:48:15;;;;;;;6.97;1.70;;;;;;;;;;5030228;28;20098;-72
2023/05/19 13:50:53;;;;;;;4.70;1.30;;;;;;;;;;5058981;28;20052;-72
2023/05/19 13:53:23;;;;;;;4.90;1.20;;;;;;;;;;5050393;28;20069;-70
2023/05/19 13:56:02;;;;;;;3.00;1.27;;;;;;;;;;5038203;28;20055;-71
2023/05/19 13:58:29;;;;;;;5.32;1.40;;;;;;;;;;5050084;28;20071;-69
2023/05/19 14:00:58;;;;;;;4.47;1.52;;;;;;;;;;5062425;28;20058;-70
2023/05/19 14:03:25;;;;;;;5.05;1.58;;;;;;;;;;5055597;28;20079;-69
2023/05/19 14:05:52;;;;;;;8.93;1.38;;;;;;;;;;5029030;28;20060;-71
2023/05/19 14:08:19;;;;;;;5.80;1.60;;;;;;;;;;5030730;28;20044;-71
2023/05/19 14:10:55;;;;;;;10.77;1.80;;;;;;;;;;5040010;28;20056;-71
2023/05/19 14:13:22;;;;;;;6.45;1.80;;;;;;;;;;5052914;28;20088;-71
2023/05/19 14:15:53;;;;;;;13.85;1.50;;;;;;;;;;5018814;28;20062;-69
2023/05/19 14:18:22;;;;;;;7.95;2.10;;;;;;;;;;5029939;28;20122;-71
2023/05/19 14:20:51;;;;;;;6.75;1.58;;;;;;;;;;5040390;28;20072;-70
2023/05/19 14:23:19;;;;;;;4.60;1.50;;;;;;;;;;5038326;28;20056;-71
2023/05/19 14:25:49;;;;;;;5.50;1.40;;;;;;;;;;5033280;28;20063;-70
2023/05/19 14:28:16;;;;;;;4.03;1.58;;;;;;;;;;5054184;28;20068;-71
2023/05/19 14:30:51;;;;;;;5.25;1.45;;;;;;;;;;5040416;28;20075;-71
2023/05/19 14:33:20;;;;;;;3.67;1.50;;;;;;;;;;5038754;28;20049;-73
2023/05/19 14:35:46;;;;;;;9.45;1.77;;;;;;;;;;5020218;28;20060;-69
2023/05/19 14:38:15;;;;;;;14.48;1.58;;;;;;;;;;5032545;28;20099;-71
2023/05/19 14:40:41;;;;;;;5.50;1.42;;;;;;;;;;5052833;28;20138;-72
2023/05/19 14:43:11;;;;;;;6.85;1.40;;;;;;;;;;5039055;28;20122;-71
2023/05/19 14:45:38;;;;;;;8.50;1.63;;;;;;;;;;5019912;28;20059;-71
2023/05/19 14:48:05;;;;;;;5.30;1.70;;;;;;;;;;5055931;28;20079;-72
2023/05/19 14:50:31;;;;;;;3.78;1.20;;;;;;;;;;5027934;28;20265;-72
2023/05/19 14:52:58;;;;;;;4.63;1.35;;;;;;;;;;5039282;28;20131;-69